createdAt,value
2018-03-29T00:00:03.427Z,68.19
2018-03-29T00:02:33.648Z,68.02
2018-03-29T00:05:02.673Z,68.12
2018-03-29T00:07:31.878Z,67.47
2018-03-29T00:10:01.019Z,68.82
2018-03-29T00:12:29.908Z,67.52
2018-03-29T00:14:59.694Z,67.95
2018-03-29T00:17:29.973Z,66.79
2018-03-29T00:19:59.145Z,67.06
2018-03-29T00:22:28.066Z,67.05
2018-03-29T00:24:58.331Z,68.19
2018-03-29T00:27:27.234Z,67.43
2018-03-29T00:29:56.245Z,68.31
2018-03-29T00:32:26.446Z,67.31
2018-03-29T00:34:55.346Z,67.63
2018-03-29T00:37:24.250Z,67.51
2018-03-29T00:39:53.446Z,67.16
2018-03-29T00:42:23.329Z,67.68
2018-03-29T00:44:52.235Z,66.99
2018-03-29T00:47:21.441Z,65.64
2018-03-29T00:49:50.329Z,64.87
2018-03-29T00:52:19.183Z,64.67
2018-03-29T00:54:48.370Z,62.46
2018-03-29T00:57:17.331Z,62.03
2018-03-29T00:59:46.897Z,61.76
2018-03-29T01:02:16.093Z,61.69
2018-03-29T01:04:44.935Z,62.26
2018-03-29T01:07:13.828Z,62.21
2018-03-29T01:09:46.798Z,62.88
2018-03-29T01:12:15.725Z,62.89
2018-03-29T01:14:44.610Z,61.96
2018-03-29T01:17:13.815Z,61.11
2018-03-29T01:19:42.908Z,61.52
2018-03-29T01:22:11.852Z,62.33
2018-03-29T01:24:42.077Z,61.57
2018-03-29T01:27:10.940Z,61.10
2018-03-29T01:29:39.851Z,61.79
2018-03-29T01:32:10.163Z,61.06
2018-03-29T01:34:39.017Z,61.22
2018-03-29T01:37:07.934Z,60.51
2018-03-29T01:39:37.276Z,61.07
2018-03-29T01:42:06.306Z,60.59
2018-03-29T01:44:35.502Z,60.51
2018-03-29T01:47:04.364Z,60.52
2018-03-29T01:49:33.548Z,60.69
2018-03-29T01:52:02.420Z,60.29
2018-03-29T01:54:31.278Z,60.43
2018-03-29T01:57:00.136Z,61.16
2018-03-29T01:59:29.429Z,61.80
2018-03-29T02:01:58.379Z,61.14
2018-03-29T02:04:27.344Z,60.79
2018-03-29T02:06:56.327Z,60.21
2018-03-29T02:09:25.228Z,60.92
2018-03-29T02:11:54.138Z,61.60
2018-03-29T02:14:23.280Z,61.24
2018-03-29T02:16:52.179Z,61.03
2018-03-29T02:19:21.104Z,61.51
2018-03-29T02:21:49.986Z,60.04
2018-03-29T02:24:19.098Z,59.73
2018-03-29T02:26:48.054Z,58.75
2018-03-29T02:29:16.993Z,58.23
2018-03-29T02:31:46.090Z,58.01
2018-03-29T02:34:15.331Z,59.12
2018-03-29T02:36:44.253Z,59.57
2018-03-29T02:39:13.278Z,57.65
2018-03-29T02:41:42.153Z,57.64
2018-03-29T02:44:12.391Z,59.32
2018-03-29T02:46:41.277Z,58.34
2018-03-29T02:49:12.484Z,57.40
2018-03-29T02:51:41.335Z,57.66
2018-03-29T02:54:10.485Z,56.80
2018-03-29T02:56:39.348Z,57.56
2018-03-29T02:59:08.260Z,57.89
2018-03-29T03:01:37.143Z,58.93
2018-03-29T03:04:06.374Z,58.03
2018-03-29T03:06:35.364Z,57.76
2018-03-29T03:09:04.634Z,57.71
2018-03-29T03:11:33.522Z,57.78
2018-03-29T03:14:03.824Z,58.73
2018-03-29T03:16:32.737Z,58.59
2018-03-29T03:19:01.636Z,58.17
2018-03-29T03:21:30.570Z,58.42
2018-03-29T03:23:59.722Z,58.80
2018-03-29T03:26:28.679Z,59.01
2018-03-29T03:28:57.665Z,61.29
2018-03-29T03:31:26.647Z,60.99
2018-03-29T03:34:33.287Z,64.11
2018-03-29T03:37:15.567Z,63.06
2018-03-29T03:39:44.906Z,63.64
2018-03-29T03:42:13.723Z,63.32
2018-03-29T03:44:42.576Z,63.64
2018-03-29T03:47:11.571Z,62.99
2018-03-29T03:49:45.373Z,65.89
2018-03-29T03:52:14.226Z,65.17
2018-03-29T03:54:43.194Z,64.55
2018-03-29T03:57:13.089Z,65.05
2018-03-29T03:59:42.048Z,64.88
2018-03-29T04:02:11.081Z,65.41
2018-03-29T04:04:40.276Z,66.65
2018-03-29T04:07:09.162Z,67.27
2018-03-29T04:09:38.233Z,69.73
2018-03-29T04:12:07.518Z,70.42
2018-03-29T04:14:36.419Z,70.13
2018-03-29T04:17:05.278Z,70.97
2018-03-29T04:19:34.290Z,70.91
2018-03-29T04:22:04.527Z,72.02
2018-03-29T04:24:33.442Z,71.71
2018-03-29T04:27:02.404Z,72.01
2018-03-29T04:29:31.865Z,72.53
2018-03-29T04:32:00.808Z,74.20
2018-03-29T04:34:29.633Z,73.65
2018-03-29T04:36:58.807Z,72.72
2018-03-29T04:39:27.683Z,73.52
2018-03-29T04:41:56.564Z,72.99
2018-03-29T04:44:25.727Z,73.16
2018-03-29T04:46:54.655Z,73.11
2018-03-29T04:49:23.549Z,73.03
2018-03-29T04:51:52.586Z,73.37
2018-03-29T04:54:21.427Z,73.53
2018-03-29T04:56:50.355Z,73.92
2018-03-29T04:59:19.352Z,73.56
2018-03-29T05:01:48.514Z,73.13
2018-03-29T05:04:17.384Z,73.23
2018-03-29T05:06:46.702Z,73.12
2018-03-29T05:09:17.860Z,73.60
2018-03-29T05:11:46.980Z,73.20
2018-03-29T05:14:15.864Z,73.73
2018-03-29T05:16:44.687Z,73.90
2018-03-29T05:19:13.556Z,73.52
2018-03-29T05:21:42.794Z,73.61
2018-03-29T05:24:11.614Z,74.05
2018-03-29T05:26:41.077Z,74.03
2018-03-29T05:29:10.278Z,74.01
2018-03-29T05:31:39.155Z,72.15
2018-03-29T05:34:08.011Z,72.54
2018-03-29T05:36:37.208Z,74.18
2018-03-29T05:39:06.390Z,74.02
2018-03-29T05:41:35.509Z,74.58
2018-03-29T05:44:04.734Z,74.86
2018-03-29T05:46:33.663Z,74.95
2018-03-29T05:49:02.602Z,74.78
2018-03-29T05:51:31.498Z,75.61
2018-03-29T05:54:00.359Z,74.58
2018-03-29T05:56:29.339Z,75.89
2018-03-29T05:58:58.460Z,74.63
2018-03-29T06:01:27.493Z,75.07
2018-03-29T06:03:56.428Z,75.29
2018-03-29T06:06:26.645Z,74.18
2018-03-29T06:08:55.480Z,74.34
2018-03-29T06:11:24.331Z,74.64
2018-03-29T06:13:57.334Z,75.02
2018-03-29T06:16:26.281Z,74.42
2018-03-29T06:18:59.459Z,73.58
2018-03-29T06:21:28.613Z,74.49
2018-03-29T06:23:57.481Z,74.03
2018-03-29T06:26:26.312Z,71.15
2018-03-29T06:28:55.522Z,65.50
2018-03-29T06:31:24.415Z,65.93
2018-03-29T06:33:54.058Z,64.05
2018-03-29T06:36:22.997Z,64.51
2018-03-29T06:38:51.899Z,62.55
2018-03-29T06:41:20.762Z,61.90
2018-03-29T06:43:50.958Z,61.64
2018-03-29T06:46:19.928Z,60.14
2018-03-29T06:48:50.252Z,60.17
2018-03-29T06:51:19.431Z,58.90
2018-03-29T06:53:48.335Z,59.65
2018-03-29T06:56:17.237Z,58.58
2018-03-29T06:58:46.333Z,58.43
2018-03-29T07:01:15.291Z,57.77
2018-03-29T07:03:45.438Z,57.27
2018-03-29T07:06:14.661Z,57.42
2018-03-29T07:08:43.568Z,55.80
2018-03-29T07:11:12.489Z,53.16
2018-03-29T07:13:43.883Z,54.15
2018-03-29T07:16:12.741Z,52.94
2018-03-29T07:18:43.059Z,52.88
2018-03-29T07:21:13.296Z,52.50
2018-03-29T07:23:42.160Z,51.36
2018-03-29T07:26:11.112Z,51.45
2018-03-29T07:28:40.281Z,51.56
2018-03-29T07:31:09.591Z,51.66
2018-03-29T07:33:39.071Z,50.64
2018-03-29T07:36:11.724Z,51.45
2018-03-29T07:38:40.666Z,51.48
2018-03-29T07:41:10.956Z,49.16
2018-03-29T07:43:40.121Z,49.41
2018-03-29T07:46:09.022Z,46.34
2018-03-29T07:48:37.919Z,44.05
2018-03-29T07:51:07.002Z,43.16
2018-03-29T07:53:35.906Z,40.99
2018-03-29T07:56:04.946Z,38.55
2018-03-29T07:58:35.291Z,36.07
2018-03-29T08:01:04.311Z,35.02
2018-03-29T08:03:33.230Z,37.08
2018-03-29T08:06:03.420Z,35.83
2018-03-29T08:08:32.443Z,33.85
2018-03-29T08:11:02.081Z,36.09
2018-03-29T08:13:32.240Z,35.51
2018-03-29T08:16:01.763Z,35.87
2018-03-29T08:18:30.688Z,36.15
2018-03-29T08:20:59.923Z,32.16
2018-03-29T08:23:28.757Z,35.04
2018-03-29T08:25:57.645Z,33.19
2018-03-29T08:28:26.726Z,33.69
2018-03-29T08:30:55.559Z,34.74
2018-03-29T08:33:26.173Z,34.89
2018-03-29T08:35:56.362Z,33.01
2018-03-29T08:38:25.227Z,32.30
2018-03-29T08:40:54.218Z,38.45
2018-03-29T08:43:23.435Z,38.02
2018-03-29T08:45:52.394Z,33.26
2018-03-29T08:48:21.299Z,35.60
2018-03-29T08:50:50.566Z,37.20
2018-03-29T08:53:20.567Z,34.67
2018-03-29T08:55:49.464Z,33.88
2018-03-29T08:58:18.726Z,36.26
2018-03-29T09:00:47.866Z,34.15
2018-03-29T09:03:17.723Z,36.51
2018-03-29T09:05:46.951Z,36.40
2018-03-29T09:08:16.432Z,38.14
2018-03-29T09:10:45.406Z,38.70
2018-03-29T09:13:15.631Z,37.36
2018-03-29T09:15:46.382Z,36.05
2018-03-29T09:18:15.324Z,35.35
2018-03-29T09:20:44.411Z,33.83
2018-03-29T09:23:13.374Z,33.05
2018-03-29T09:25:42.433Z,34.97
2018-03-29T09:28:11.606Z,36.67
2018-03-29T09:30:40.516Z,33.08
2018-03-29T09:33:09.375Z,32.19
2018-03-29T09:35:39.601Z,30.95
2018-03-29T09:38:08.534Z,29.97
2018-03-29T09:40:37.477Z,28.72
2018-03-29T09:43:06.735Z,26.15
2018-03-29T09:45:35.619Z,27.93
2018-03-29T09:48:04.605Z,27.81
2018-03-29T09:50:33.747Z,28.68
2018-03-29T09:53:02.694Z,27.85
2018-03-29T09:55:31.602Z,27.78
2018-03-29T09:58:00.741Z,29.84
2018-03-29T10:00:34.989Z,29.43
2018-03-29T10:03:08.105Z,30.66
2018-03-29T10:05:38.217Z,29.52
2018-03-29T10:08:07.144Z,29.60
2018-03-29T10:10:37.498Z,30.87
2018-03-29T10:13:06.493Z,29.56
2018-03-29T10:15:35.343Z,27.79
2018-03-29T10:18:04.617Z,28.08
2018-03-29T10:20:33.610Z,27.55
2018-03-29T10:23:02.522Z,27.68
2018-03-29T10:25:32.856Z,26.00
2018-03-29T10:28:01.786Z,27.31
2018-03-29T10:30:30.638Z,25.52
2018-03-29T10:33:00.413Z,28.56
2018-03-29T10:35:29.304Z,29.04
2018-03-29T10:37:58.250Z,31.79
2018-03-29T10:40:27.521Z,30.84
2018-03-29T10:42:56.426Z,32.06
2018-03-29T10:45:25.399Z,30.72
2018-03-29T10:47:55.094Z,30.10
2018-03-29T10:50:24.017Z,30.51
2018-03-29T10:52:52.998Z,31.50
2018-03-29T10:55:22.172Z,31.58
2018-03-29T10:57:51.185Z,33.94
2018-03-29T11:00:20.055Z,34.66
2018-03-29T11:02:52.529Z,36.29
2018-03-29T11:05:21.408Z,36.98
2018-03-29T11:07:50.241Z,37.76
2018-03-29T11:10:19.653Z,36.79
2018-03-29T11:12:48.705Z,39.11
2018-03-29T11:15:17.677Z,38.73
2018-03-29T11:17:48.131Z,35.78
2018-03-29T11:20:17.024Z,36.00
2018-03-29T11:22:45.914Z,35.57
2018-03-29T11:25:15.108Z,33.72
2018-03-29T11:27:43.957Z,35.78
2018-03-29T11:30:12.911Z,35.83
2018-03-29T11:32:42.179Z,37.36
2018-03-29T11:35:11.204Z,35.01
2018-03-29T11:37:40.134Z,32.83
2018-03-29T11:40:09.329Z,33.11
2018-03-29T11:42:39.086Z,33.64
2018-03-29T11:45:08.838Z,31.81
2018-03-29T11:47:38.001Z,32.97
2018-03-29T11:50:06.886Z,32.89
2018-03-29T11:52:35.980Z,32.81
2018-03-29T11:55:05.282Z,33.81
2018-03-29T11:57:34.220Z,36.71
2018-03-29T12:00:03.269Z,37.56
2018-03-29T12:02:33.489Z,37.67
2018-03-29T12:05:02.423Z,39.19
2018-03-29T12:07:32.681Z,39.05
2018-03-29T12:10:01.931Z,39.73
2018-03-29T12:12:31.018Z,38.44
2018-03-29T12:14:59.982Z,39.89
2018-03-29T12:17:29.359Z,38.80
2018-03-29T12:19:58.354Z,39.65
2018-03-29T12:22:27.289Z,39.80
2018-03-29T12:24:56.535Z,40.06
2018-03-29T12:27:26.398Z,40.46
2018-03-29T12:29:55.326Z,39.42
2018-03-29T12:32:24.701Z,39.60
2018-03-29T12:34:53.586Z,39.91
2018-03-29T12:37:22.571Z,38.83
2018-03-29T12:39:51.871Z,39.01
2018-03-29T12:42:20.800Z,40.60
2018-03-29T12:44:49.695Z,40.39
2018-03-29T12:47:19.075Z,40.78
2018-03-29T12:49:49.242Z,41.92
2018-03-29T12:52:19.106Z,41.86
2018-03-29T12:54:59.242Z,41.12
2018-03-29T12:57:39.060Z,40.59
2018-03-29T13:00:08.279Z,39.81
2018-03-29T13:02:37.271Z,40.81
2018-03-29T13:05:06.208Z,40.45
2018-03-29T13:07:35.473Z,40.90
2018-03-29T13:10:04.489Z,40.49
2018-03-29T13:12:35.548Z,40.66
2018-03-29T13:15:05.020Z,40.65
2018-03-29T13:17:33.940Z,42.47
2018-03-29T13:20:02.852Z,41.81
2018-03-29T13:22:32.023Z,42.20
2018-03-29T13:25:00.942Z,42.18
2018-03-29T13:27:29.921Z,42.36
2018-03-29T13:30:00.195Z,40.68
2018-03-29T13:32:29.128Z,41.15
2018-03-29T13:34:58.076Z,41.09
2018-03-29T13:37:27.251Z,41.49
2018-03-29T13:39:56.189Z,41.39
2018-03-29T13:42:25.076Z,41.24
2018-03-29T13:44:54.258Z,41.09
2018-03-29T13:47:24.311Z,40.19
2018-03-29T13:49:53.819Z,39.35
2018-03-29T13:52:23.011Z,40.87
2018-03-29T13:54:52.111Z,40.16
2018-03-29T13:57:21.019Z,41.71
2018-03-29T13:59:50.937Z,42.23
2018-03-29T14:02:19.858Z,41.38
2018-03-29T14:04:48.727Z,40.40
2018-03-29T14:07:18.657Z,40.20
2018-03-29T14:09:47.483Z,40.05
2018-03-29T14:12:16.349Z,40.48
2018-03-29T14:14:45.505Z,41.54
2018-03-29T14:17:14.447Z,41.03
2018-03-29T14:19:44.688Z,39.33
2018-03-29T14:22:13.996Z,39.10
2018-03-29T14:24:43.041Z,39.12
2018-03-29T14:27:12.009Z,37.57
2018-03-29T14:29:41.230Z,39.60
2018-03-29T14:32:10.200Z,41.35
2018-03-29T14:34:39.244Z,40.92
2018-03-29T14:37:09.289Z,40.56
2018-03-29T14:39:38.343Z,39.33
2018-03-29T14:42:07.174Z,39.19
2018-03-29T14:44:36.339Z,41.36
2018-03-29T14:47:05.226Z,41.40
2018-03-29T14:49:34.166Z,40.84
2018-03-29T14:52:04.330Z,40.53
2018-03-29T14:54:33.211Z,40.59
2018-03-29T14:57:02.118Z,40.41
2018-03-29T14:59:31.404Z,40.79
2018-03-29T15:02:00.385Z,41.65
2018-03-29T15:04:29.285Z,41.61
2018-03-29T15:06:58.508Z,41.86
2018-03-29T15:09:27.459Z,41.83
2018-03-29T15:11:57.329Z,41.95
2018-03-29T15:14:27.498Z,41.67
2018-03-29T15:16:56.440Z,41.40
2018-03-29T15:19:25.403Z,42.14
2018-03-29T15:21:54.792Z,42.63
2018-03-29T15:24:23.763Z,42.34
2018-03-29T15:26:54.322Z,41.64
2018-03-29T15:29:23.498Z,42.33
2018-03-29T15:31:52.456Z,41.95
2018-03-29T15:34:21.438Z,41.26
2018-03-29T15:36:50.652Z,42.10
2018-03-29T15:39:19.726Z,41.61
2018-03-29T15:41:48.644Z,43.01
2018-03-29T15:44:18.966Z,42.39
2018-03-29T15:46:47.950Z,43.50
2018-03-29T15:49:16.951Z,43.76
2018-03-29T15:51:48.404Z,43.91
2018-03-29T15:54:17.432Z,43.54
2018-03-29T15:56:46.379Z,44.25
2018-03-29T15:59:15.686Z,44.14
2018-03-29T16:01:44.612Z,42.53
2018-03-29T16:04:13.500Z,43.36
2018-03-29T16:06:42.924Z,43.14
2018-03-29T16:09:12.004Z,44.64
2018-03-29T16:11:40.884Z,44.95
2018-03-29T16:14:11.063Z,44.29
2018-03-29T16:16:40.957Z,45.14
2018-03-29T16:19:09.883Z,45.45
2018-03-29T16:21:39.320Z,44.42
2018-03-29T16:24:08.257Z,44.78
2018-03-29T16:26:37.203Z,44.45
2018-03-29T16:29:06.346Z,43.72
2018-03-29T16:31:35.328Z,44.47
2018-03-29T16:34:05.542Z,44.76
2018-03-29T16:36:34.998Z,45.27
2018-03-29T16:39:04.098Z,45.52
2018-03-29T16:41:33.747Z,45.00
2018-03-29T16:44:03.308Z,44.31
2018-03-29T16:46:32.576Z,43.25
2018-03-29T16:49:01.733Z,45.12
2018-03-29T16:51:35.621Z,43.39
2018-03-29T16:54:04.975Z,43.53
2018-03-29T16:56:34.106Z,44.66
2018-03-29T16:59:03.739Z,44.44
2018-03-29T17:01:32.897Z,44.46
2018-03-29T17:04:02.155Z,43.46
2018-03-29T17:06:32.464Z,44.56
2018-03-29T17:09:01.654Z,44.44
2018-03-29T17:11:30.767Z,44.06
2018-03-29T17:14:03.906Z,45.25
2018-03-29T17:16:32.901Z,45.23
2018-03-29T17:19:02.418Z,45.93
2018-03-29T17:21:31.815Z,45.83
2018-03-29T17:24:00.848Z,44.86
2018-03-29T17:26:29.797Z,45.60
2018-03-29T17:28:59.323Z,46.40
2018-03-29T17:31:28.946Z,44.90
2018-03-29T17:33:58.146Z,45.89
2018-03-29T17:36:27.589Z,47.60
2018-03-29T17:38:56.817Z,48.03
2018-03-29T17:41:26.286Z,48.17
2018-03-29T17:43:55.638Z,49.69
2018-03-29T17:46:24.821Z,50.66
2018-03-29T17:48:54.266Z,49.68
2018-03-29T17:51:23.833Z,49.88
2018-03-29T17:53:52.962Z,51.25
2018-03-29T17:56:22.227Z,53.37
2018-03-29T17:58:52.621Z,51.94
2018-03-29T18:01:21.839Z,54.17
2018-03-29T18:03:50.892Z,55.18
2018-03-29T18:06:19.942Z,54.84
2018-03-29T18:08:49.440Z,55.34
2018-03-29T18:11:18.409Z,54.53
2018-03-29T18:13:47.651Z,54.12
2018-03-29T18:16:16.685Z,53.69
2018-03-29T18:18:47.638Z,53.33
2018-03-29T18:21:16.859Z,52.89
2018-03-29T18:23:45.976Z,53.39
2018-03-29T18:26:15.126Z,54.12
2018-03-29T18:28:44.327Z,54.50
2018-03-29T18:31:13.372Z,55.34
2018-03-29T18:33:42.374Z,54.97
2018-03-29T18:36:12.611Z,55.49
2018-03-29T18:38:41.718Z,55.99
2018-03-29T18:41:10.652Z,56.66
2018-03-29T18:43:39.903Z,56.89
2018-03-29T18:46:08.911Z,57.45
2018-03-29T18:48:38.185Z,57.69
2018-03-29T18:51:07.736Z,58.30
2018-03-29T18:53:36.797Z,58.19
2018-03-29T18:56:05.770Z,57.68
2018-03-29T18:58:35.128Z,58.34
2018-03-29T19:01:04.057Z,58.94
2018-03-29T19:03:32.984Z,58.94
2018-03-29T19:06:02.966Z,58.85
2018-03-29T19:08:31.991Z,59.36
2018-03-29T19:11:01.114Z,59.35
2018-03-29T19:13:30.422Z,60.28
2018-03-29T19:15:59.765Z,60.97
2018-03-29T19:18:28.763Z,62.18
2018-03-29T19:21:00.038Z,61.80
2018-03-29T19:23:28.987Z,62.22
2018-03-29T19:25:57.979Z,62.80
2018-03-29T19:28:27.312Z,62.87
2018-03-29T19:30:56.442Z,62.32
2018-03-29T19:33:25.522Z,62.71
2018-03-29T19:35:54.833Z,62.52
2018-03-29T19:38:23.928Z,62.95
2018-03-29T19:40:52.946Z,63.09
2018-03-29T19:43:22.437Z,63.33
2018-03-29T19:45:51.415Z,63.93
2018-03-29T19:48:20.627Z,64.81
2018-03-29T19:50:51.216Z,64.59
2018-03-29T19:53:20.282Z,64.66
2018-03-29T19:55:52.073Z,64.32
2018-03-29T19:58:22.431Z,64.30
2018-03-29T20:00:51.383Z,64.51
2018-03-29T20:03:20.439Z,64.46
2018-03-29T20:05:49.797Z,65.13
2018-03-29T20:08:19.893Z,65.42
2018-03-29T20:10:48.768Z,65.51
2018-03-29T20:13:18.021Z,65.42
2018-03-29T20:15:47.025Z,65.59
2018-03-29T20:18:16.129Z,65.90
2018-03-29T20:20:45.577Z,65.54
2018-03-29T20:23:14.616Z,65.79
2018-03-29T20:25:43.551Z,65.63
2018-03-29T20:28:12.902Z,65.12
2018-03-29T20:30:41.926Z,65.04
2018-03-29T20:33:11.005Z,65.12
2018-03-29T20:35:41.091Z,64.76
2018-03-29T20:38:10.242Z,64.23
2018-03-29T20:40:39.271Z,65.08
2018-03-29T20:43:08.840Z,65.54
2018-03-29T20:45:37.795Z,65.81
2018-03-29T20:48:06.798Z,65.65
2018-03-29T20:50:37.112Z,66.67
2018-03-29T20:53:06.140Z,66.60
2018-03-29T20:55:35.035Z,66.69
2018-03-29T20:58:04.304Z,67.18
2018-03-29T21:00:33.252Z,66.76
2018-03-29T21:03:02.213Z,66.92
2018-03-29T21:05:31.458Z,66.81
2018-03-29T21:08:00.371Z,67.14
2018-03-29T21:10:29.316Z,67.69
2018-03-29T21:13:00.866Z,67.71
2018-03-29T21:15:30.771Z,68.25
2018-03-29T21:17:59.895Z,68.54
2018-03-29T21:20:29.177Z,68.83
2018-03-29T21:22:59.936Z,69.07
2018-03-29T21:25:28.887Z,69.40
2018-03-29T21:27:58.366Z,69.32
2018-03-29T21:30:27.461Z,69.60
2018-03-29T21:32:56.517Z,69.80
2018-03-29T21:35:26.852Z,69.89
2018-03-29T21:37:55.788Z,70.21
2018-03-29T21:40:24.800Z,69.98
2018-03-29T21:42:54.269Z,70.58
2018-03-29T21:45:23.364Z,70.57
2018-03-29T21:47:53.088Z,70.78
2018-03-29T21:50:22.334Z,70.97
2018-03-29T21:52:51.255Z,70.64
2018-03-29T21:55:20.259Z,71.13
2018-03-29T21:57:51.536Z,71.00
2018-03-29T22:00:20.720Z,71.65
2018-03-29T22:02:49.635Z,71.44
2018-03-29T22:05:18.909Z,71.55
2018-03-29T22:07:48.147Z,72.15
2018-03-29T22:10:17.141Z,72.30
2018-03-29T22:12:46.321Z,72.35
2018-03-29T22:15:15.281Z,72.42
2018-03-29T22:17:44.259Z,73.46
2018-03-29T22:20:13.492Z,73.03
2018-03-29T22:22:44.863Z,73.36
2018-03-29T22:25:13.833Z,72.93
2018-03-29T22:30:13.644Z,73.33
2018-03-29T22:32:42.643Z,73.29
2018-03-29T22:35:11.849Z,73.13
2018-03-29T22:37:40.709Z,73.15
2018-03-29T22:40:09.654Z,73.03
2018-03-29T22:42:41.775Z,73.56
2018-03-29T22:45:10.834Z,73.16
2018-03-29T22:47:39.803Z,73.15
2018-03-29T22:50:10.194Z,73.17
2018-03-29T22:52:39.093Z,73.37
2018-03-29T22:55:08.011Z,73.55
2018-03-29T23:00:08.357Z,74.20
2018-03-29T23:02:39.579Z,74.49
2018-03-29T23:05:08.797Z,74.38
2018-03-29T23:07:37.735Z,74.79
2018-03-29T23:10:06.633Z,74.62
2018-03-29T23:12:35.790Z,74.59
2018-03-29T23:15:04.693Z,74.54
2018-03-29T23:17:33.550Z,74.43
2018-03-29T23:20:03.292Z,74.48
2018-03-29T23:22:33.443Z,74.69
2018-03-29T23:25:02.342Z,74.56
2018-03-29T23:27:32.260Z,75.03
2018-03-29T23:30:01.187Z,75.08
2018-03-29T23:32:33.697Z,75.58
2018-03-29T23:35:02.967Z,75.32
2018-03-29T23:37:31.905Z,75.20
2018-03-29T23:40:00.853Z,75.22
2018-03-29T23:42:30.256Z,75.39
2018-03-29T23:44:59.129Z,75.31
2018-03-29T23:47:28.006Z,75.47
2018-03-29T23:49:57.223Z,75.83
2018-03-29T23:52:26.098Z,76.50
2018-03-29T23:54:54.987Z,75.98
2018-03-29T23:57:27.969Z,76.41
2018-03-29T23:59:56.861Z,76.55
